sensor_id;sensor_type;location;lat;lon;timestamp;temperature;humidity
4635;DHT22;2330;48.158;11.816;2023-09-19T00:00:43;15.80;98.50
4635;DHT22;2330;48.158;11.816;2023-09-19T00:03:14;15.80;98.50
4635;DHT22;2330;48.158;11.816;2023-09-19T00:05:42;15.90;98.50
4635;DHT22;2330;48.158;11.816;2023-09-19T00:08:13;15.80;98.50
4635;DHT22;2330;48.158;11.816;2023-09-19T00:10:40;15.90;98.50
4635;DHT22;2330;48.158;11.816;2023-09-19T00:13:09;15.90;98.50
4635;DHT22;2330;48.158;11.816;2023-09-19T00:15:44;15.90;98.50
4635;DHT22;2330;48.158;11.816;2023-09-19T00:18:20;15.90;98.50
4635;DHT22;2330;48.158;11.816;2023-09-19T00:20:49;16.00;98.50
4635;DHT22;2330;48.158;11.816;2023-09-19T00:23:18;16.00;98.50
4635;DHT22;2330;48.158;11.816;2023-09-19T00:25:46;16.00;98.50
4635;DHT22;2330;48.158;11.816;2023-09-19T00:28:13;16.00;98.50
4635;DHT22;2330;48.158;11.816;2023-09-19T00:30:42;16.00;98.50
4635;DHT22;2330;48.158;11.816;2023-09-19T00:33:10;16.10;98.50
4635;DHT22;2330;48.158;11.816;2023-09-19T00:35:38;16.10;98.50
4635;DHT22;2330;48.158;11.816;2023-09-19T00:38:05;16.10;98.50
4635;DHT22;2330;48.158;11.816;2023-09-19T00:40:33;16.10;98.50
4635;DHT22;2330;48.158;11.816;2023-09-19T00:43:02;16.10;98.50
4635;DHT22;2330;48.158;11.816;2023-09-19T00:45:29;16.20;98.50
4635;DHT22;2330;48.158;11.816;2023-09-19T00:47:56;16.20;98.50
4635;DHT22;2330;48.158;11.816;2023-09-19T00:50:25;16.10;98.50
4635;DHT22;2330;48.158;11.816;2023-09-19T00:52:54;16.10;98.50
4635;DHT22;2330;48.158;11.816;2023-09-19T00:55:25;16.10;98.50
4635;DHT22;2330;48.158;11.816;2023-09-19T00:57:53;16.10;98.50
4635;DHT22;2330;48.158;11.816;2023-09-19T01:00:22;16.10;98.50
4635;DHT22;2330;48.158;11.816;2023-09-19T01:02:50;16.10;98.50
4635;DHT22;2330;48.158;11.816;2023-09-19T01:05:17;16.10;98.50
4635;DHT22;2330;48.158;11.816;2023-09-19T01:07:45;16.20;98.50
4635;DHT22;2330;48.158;11.816;2023-09-19T01:10:14;16.20;98.50
4635;DHT22;2330;48.158;11.816;2023-09-19T01:12:45;16.20;98.50
4635;DHT22;2330;48.158;11.816;2023-09-19T01:18:17;16.20;98.50
4635;DHT22;2330;48.158;11.816;2023-09-19T01:21:08;16.20;98.50
4635;DHT22;2330;48.158;11.816;2023-09-19T01:30:10;16.10;98.50
4635;DHT22;2330;48.158;11.816;2023-09-19T01:32:38;16.10;98.50
4635;DHT22;2330;48.158;11.816;2023-09-19T01:35:06;16.10;98.50
4635;DHT22;2330;48.158;11.816;2023-09-19T01:37:32;16.10;98.50
4635;DHT22;2330;48.158;11.816;2023-09-19T01:40:02;16.10;98.50
4635;DHT22;2330;48.158;11.816;2023-09-19T01:42:35;16.10;98.50
4635;DHT22;2330;48.158;11.816;2023-09-19T01:48:30;16.00;98.50
4635;DHT22;2330;48.158;11.816;2023-09-19T01:51:02;16.00;98.50
4635;DHT22;2330;48.158;11.816;2023-09-19T01:53:55;16.00;98.50
4635;DHT22;2330;48.158;11.816;2023-09-19T01:56:37;16.10;98.50
4635;DHT22;2330;48.158;11.816;2023-09-19T01:59:13;16.10;98.50
4635;DHT22;2330;48.158;11.816;2023-09-19T02:01:44;16.10;98.50
4635;DHT22;2330;48.158;11.816;2023-09-19T02:04:12;16.10;98.50
4635;DHT22;2330;48.158;11.816;2023-09-19T02:06:42;16.10;98.50
4635;DHT22;2330;48.158;11.816;2023-09-19T02:09:09;16.10;98.50
4635;DHT22;2330;48.158;11.816;2023-09-19T02:11:35;16.10;98.50
4635;DHT22;2330;48.158;11.816;2023-09-19T02:14:03;16.20;98.50
4635;DHT22;2330;48.158;11.816;2023-09-19T02:16:31;16.20;98.50
4635;DHT22;2330;48.158;11.816;2023-09-19T02:18:58;16.10;98.50
4635;DHT22;2330;48.158;11.816;2023-09-19T02:21:26;16.10;98.50
4635;DHT22;2330;48.158;11.816;2023-09-19T02:23:57;16.20;98.50
4635;DHT22;2330;48.158;11.816;2023-09-19T02:26:24;16.10;98.50
4635;DHT22;2330;48.158;11.816;2023-09-19T02:28:51;16.10;98.50
4635;DHT22;2330;48.158;11.816;2023-09-19T02:31:19;16.10;98.50
4635;DHT22;2330;48.158;11.816;2023-09-19T02:33:46;16.10;98.50
4635;DHT22;2330;48.158;11.816;2023-09-19T02:36:13;16.20;98.50
4635;DHT22;2330;48.158;11.816;2023-09-19T02:38:43;16.20;98.50
4635;DHT22;2330;48.158;11.816;2023-09-19T02:41:10;16.20;98.50
4635;DHT22;2330;48.158;11.816;2023-09-19T02:43:37;16.20;98.50
4635;DHT22;2330;48.158;11.816;2023-09-19T02:46:04;16.10;98.50
4635;DHT22;2330;48.158;11.816;2023-09-19T02:48:31;16.10;98.50
4635;DHT22;2330;48.158;11.816;2023-09-19T02:50:58;16.00;98.50
4635;DHT22;2330;48.158;11.816;2023-09-19T02:53:25;16.00;98.50
4635;DHT22;2330;48.158;11.816;2023-09-19T02:55:52;15.90;98.50
4635;DHT22;2330;48.158;11.816;2023-09-19T02:58:19;15.90;98.50
4635;DHT22;2330;48.158;11.816;2023-09-19T03:00:46;16.00;98.50
4635;DHT22;2330;48.158;11.816;2023-09-19T03:03:14;16.00;98.50
4635;DHT22;2330;48.158;11.816;2023-09-19T03:05:43;15.90;98.50
4635;DHT22;2330;48.158;11.816;2023-09-19T03:08:14;15.90;98.50
4635;DHT22;2330;48.158;11.816;2023-09-19T03:10:46;15.90;98.50
4635;DHT22;2330;48.158;11.816;2023-09-19T03:13:14;16.00;98.50
4635;DHT22;2330;48.158;11.816;2023-09-19T03:15:42;16.00;98.50
4635;DHT22;2330;48.158;11.816;2023-09-19T03:18:13;15.90;98.50
4635;DHT22;2330;48.158;11.816;2023-09-19T03:20:40;16.00;98.50
4635;DHT22;2330;48.158;11.816;2023-09-19T03:23:07;16.00;98.50
4635;DHT22;2330;48.158;11.816;2023-09-19T03:25:35;16.00;98.50
4635;DHT22;2330;48.158;11.816;2023-09-19T03:28:03;16.00;98.50
4635;DHT22;2330;48.158;11.816;2023-09-19T03:30:32;16.00;98.50
4635;DHT22;2330;48.158;11.816;2023-09-19T03:33:00;16.00;98.50
4635;DHT22;2330;48.158;11.816;2023-09-19T03:35:27;16.00;98.50
4635;DHT22;2330;48.158;11.816;2023-09-19T03:37:54;15.90;98.50
4635;DHT22;2330;48.158;11.816;2023-09-19T03:40:21;15.90;98.50
4635;DHT22;2330;48.158;11.816;2023-09-19T03:42:50;15.90;98.50
4635;DHT22;2330;48.158;11.816;2023-09-19T03:45:17;15.90;98.50
4635;DHT22;2330;48.158;11.816;2023-09-19T03:47:45;15.90;98.50
4635;DHT22;2330;48.158;11.816;2023-09-19T03:50:14;15.90;98.50
4635;DHT22;2330;48.158;11.816;2023-09-19T03:52:44;15.90;98.50
4635;DHT22;2330;48.158;11.816;2023-09-19T03:55:11;15.90;98.50
4635;DHT22;2330;48.158;11.816;2023-09-19T03:57:38;15.90;98.50
4635;DHT22;2330;48.158;11.816;2023-09-19T04:00:06;15.80;98.50
4635;DHT22;2330;48.158;11.816;2023-09-19T04:02:39;15.80;98.50
4635;DHT22;2330;48.158;11.816;2023-09-19T04:05:06;15.80;98.50
4635;DHT22;2330;48.158;11.816;2023-09-19T04:07:33;15.80;98.50
4635;DHT22;2330;48.158;11.816;2023-09-19T04:10:01;15.80;98.50
4635;DHT22;2330;48.158;11.816;2023-09-19T04:12:29;15.80;98.50
4635;DHT22;2330;48.158;11.816;2023-09-19T04:14:55;15.80;98.50
4635;DHT22;2330;48.158;11.816;2023-09-19T04:17:22;15.80;98.50
4635;DHT22;2330;48.158;11.816;2023-09-19T04:19:50;15.80;98.50
4635;DHT22;2330;48.158;11.816;2023-09-19T04:22:17;15.80;98.50
4635;DHT22;2330;48.158;11.816;2023-09-19T04:24:43;15.80;98.50
4635;DHT22;2330;48.158;11.816;2023-09-19T04:27:11;15.80;98.50
4635;DHT22;2330;48.158;11.816;2023-09-19T04:29:41;15.80;98.50
4635;DHT22;2330;48.158;11.816;2023-09-19T04:32:08;15.80;98.50
4635;DHT22;2330;48.158;11.816;2023-09-19T04:34:36;15.80;98.50
4635;DHT22;2330;48.158;11.816;2023-09-19T04:37:05;15.90;98.50
4635;DHT22;2330;48.158;11.816;2023-09-19T04:39:32;15.90;98.50
4635;DHT22;2330;48.158;11.816;2023-09-19T04:41:58;15.90;98.50
4635;DHT22;2330;48.158;11.816;2023-09-19T04:44:26;15.90;98.50
4635;DHT22;2330;48.158;11.816;2023-09-19T04:46:52;15.90;98.50
4635;DHT22;2330;48.158;11.816;2023-09-19T04:49:19;15.90;98.50
4635;DHT22;2330;48.158;11.816;2023-09-19T04:51:46;15.90;98.50
4635;DHT22;2330;48.158;11.816;2023-09-19T04:54:13;15.90;98.50
4635;DHT22;2330;48.158;11.816;2023-09-19T04:56:41;16.00;98.50
4635;DHT22;2330;48.158;11.816;2023-09-19T04:59:08;16.00;98.50
4635;DHT22;2330;48.158;11.816;2023-09-19T05:01:37;16.00;98.50
4635;DHT22;2330;48.158;11.816;2023-09-19T05:04:04;16.00;98.50
4635;DHT22;2330;48.158;11.816;2023-09-19T05:06:32;16.00;98.50
4635;DHT22;2330;48.158;11.816;2023-09-19T05:09:00;16.10;98.50
4635;DHT22;2330;48.158;11.816;2023-09-19T05:11:27;16.10;98.50
4635;DHT22;2330;48.158;11.816;2023-09-19T05:13:54;16.20;98.50
4635;DHT22;2330;48.158;11.816;2023-09-19T05:16:21;16.20;98.50
4635;DHT22;2330;48.158;11.816;2023-09-19T05:18:48;16.30;98.50
4635;DHT22;2330;48.158;11.816;2023-09-19T05:21:16;16.40;98.50
4635;DHT22;2330;48.158;11.816;2023-09-19T05:23:44;16.40;98.50
4635;DHT22;2330;48.158;11.816;2023-09-19T05:26:11;16.40;98.50
4635;DHT22;2330;48.158;11.816;2023-09-19T05:28:39;16.50;98.50
4635;DHT22;2330;48.158;11.816;2023-09-19T05:31:06;16.60;98.50
4635;DHT22;2330;48.158;11.816;2023-09-19T05:33:32;16.70;98.50
4635;DHT22;2330;48.158;11.816;2023-09-19T05:36:00;16.80;98.50
4635;DHT22;2330;48.158;11.816;2023-09-19T05:38:26;16.80;98.50
4635;DHT22;2330;48.158;11.816;2023-09-19T05:40:54;16.80;98.50
4635;DHT22;2330;48.158;11.816;2023-09-19T05:43:21;16.80;98.50
4635;DHT22;2330;48.158;11.816;2023-09-19T05:45:49;16.90;98.50
4635;DHT22;2330;48.158;11.816;2023-09-19T05:48:19;17.00;98.50
4635;DHT22;2330;48.158;11.816;2023-09-19T05:50:47;17.00;98.50
4635;DHT22;2330;48.158;11.816;2023-09-19T05:53:15;17.00;98.50
4635;DHT22;2330;48.158;11.816;2023-09-19T05:55:42;17.00;98.50
4635;DHT22;2330;48.158;11.816;2023-09-19T05:58:10;17.00;98.50
4635;DHT22;2330;48.158;11.816;2023-09-19T06:00:37;17.00;98.50
4635;DHT22;2330;48.158;11.816;2023-09-19T06:03:05;17.00;98.50
4635;DHT22;2330;48.158;11.816;2023-09-19T06:05:32;17.00;98.50
4635;DHT22;2330;48.158;11.816;2023-09-19T06:07:59;17.00;98.50
4635;DHT22;2330;48.158;11.816;2023-09-19T06:10:27;17.00;98.50
4635;DHT22;2330;48.158;11.816;2023-09-19T06:12:54;17.00;98.50
4635;DHT22;2330;48.158;11.816;2023-09-19T06:15:21;16.90;98.50
4635;DHT22;2330;48.158;11.816;2023-09-19T06:17:53;16.90;98.50
4635;DHT22;2330;48.158;11.816;2023-09-19T06:20:25;16.90;98.50
4635;DHT22;2330;48.158;11.816;2023-09-19T06:22:53;17.00;98.50
4635;DHT22;2330;48.158;11.816;2023-09-19T06:25:21;17.00;98.50
4635;DHT22;2330;48.158;11.816;2023-09-19T06:27:51;17.00;98.50
4635;DHT22;2330;48.158;11.816;2023-09-19T06:30:23;17.10;98.50
4635;DHT22;2330;48.158;11.816;2023-09-19T06:32:56;17.30;98.50
4635;DHT22;2330;48.158;11.816;2023-09-19T06:35:25;17.70;98.50
4635;DHT22;2330;48.158;11.816;2023-09-19T06:37:53;17.90;98.50
4635;DHT22;2330;48.158;11.816;2023-09-19T06:40:20;17.80;98.50
4635;DHT22;2330;48.158;11.816;2023-09-19T06:42:50;17.80;98.50
4635;DHT22;2330;48.158;11.816;2023-09-19T06:45:19;17.90;98.50
4635;DHT22;2330;48.158;11.816;2023-09-19T06:47:47;18.00;98.50
4635;DHT22;2330;48.158;11.816;2023-09-19T06:50:21;18.20;98.50
4635;DHT22;2330;48.158;11.816;2023-09-19T06:52:54;18.40;98.50
4635;DHT22;2330;48.158;11.816;2023-09-19T06:55:22;18.50;98.50
4635;DHT22;2330;48.158;11.816;2023-09-19T06:57:52;18.60;98.50
4635;DHT22;2330;48.158;11.816;2023-09-19T07:00:21;18.70;98.50
4635;DHT22;2330;48.158;11.816;2023-09-19T07:03:10;18.60;98.50
4635;DHT22;2330;48.158;11.816;2023-09-19T07:05:40;18.50;98.50
4635;DHT22;2330;48.158;11.816;2023-09-19T07:08:08;18.50;98.50
4635;DHT22;2330;48.158;11.816;2023-09-19T07:10:37;18.30;98.50
4635;DHT22;2330;48.158;11.816;2023-09-19T07:13:08;18.50;98.50
4635;DHT22;2330;48.158;11.816;2023-09-19T07:15:39;18.80;98.50
4635;DHT22;2330;48.158;11.816;2023-09-19T07:18:08;19.20;98.50
4635;DHT22;2330;48.158;11.816;2023-09-19T07:20:38;19.10;98.50
4635;DHT22;2330;48.158;11.816;2023-09-19T07:23:05;19.20;98.50
4635;DHT22;2330;48.158;11.816;2023-09-19T07:25:32;18.90;98.50
4635;DHT22;2330;48.158;11.816;2023-09-19T07:27:59;19.00;98.50
4635;DHT22;2330;48.158;11.816;2023-09-19T07:30:27;19.10;98.50
4635;DHT22;2330;48.158;11.816;2023-09-19T07:32:54;19.20;98.50
4635;DHT22;2330;48.158;11.816;2023-09-19T07:35:21;19.20;98.50
4635;DHT22;2330;48.158;11.816;2023-09-19T07:37:49;19.10;98.50
4635;DHT22;2330;48.158;11.816;2023-09-19T07:40:17;19.00;98.50
4635;DHT22;2330;48.158;11.816;2023-09-19T07:42:44;19.10;98.50
4635;DHT22;2330;48.158;11.816;2023-09-19T07:45:13;19.00;98.50
4635;DHT22;2330;48.158;11.816;2023-09-19T07:47:44;18.90;98.50
4635;DHT22;2330;48.158;11.816;2023-09-19T07:50:13;18.70;98.50
4635;DHT22;2330;48.158;11.816;2023-09-19T07:52:40;18.80;98.50
4635;DHT22;2330;48.158;11.816;2023-09-19T07:55:07;19.10;98.50
4635;DHT22;2330;48.158;11.816;2023-09-19T07:57:38;19.30;98.50
4635;DHT22;2330;48.158;11.816;2023-09-19T08:00:05;19.70;98.50
4635;DHT22;2330;48.158;11.816;2023-09-19T08:02:37;20.10;98.50
4635;DHT22;2330;48.158;11.816;2023-09-19T08:05:11;20.30;98.50
4635;DHT22;2330;48.158;11.816;2023-09-19T08:07:40;20.40;98.50
4635;DHT22;2330;48.158;11.816;2023-09-19T08:10:07;20.70;98.50
4635;DHT22;2330;48.158;11.816;2023-09-19T08:12:34;20.80;98.50
4635;DHT22;2330;48.158;11.816;2023-09-19T08:15:16;20.50;98.50
4635;DHT22;2330;48.158;11.816;2023-09-19T08:17:43;20.00;98.50
4635;DHT22;2330;48.158;11.816;2023-09-19T08:20:11;20.00;98.50
4635;DHT22;2330;48.158;11.816;2023-09-19T08:22:52;20.40;98.50
4635;DHT22;2330;48.158;11.816;2023-09-19T08:25:21;20.60;98.50
4635;DHT22;2330;48.158;11.816;2023-09-19T08:27:49;20.90;98.20
4635;DHT22;2330;48.158;11.816;2023-09-19T08:30:18;21.10;97.70
4635;DHT22;2330;48.158;11.816;2023-09-19T08:32:45;21.10;98.40
4635;DHT22;2330;48.158;11.816;2023-09-19T08:35:13;21.10;98.30
4635;DHT22;2330;48.158;11.816;2023-09-19T08:37:42;21.00;98.10
4635;DHT22;2330;48.158;11.816;2023-09-19T08:40:09;21.10;98.40
4635;DHT22;2330;48.158;11.816;2023-09-19T08:42:53;21.30;98.30
4635;DHT22;2330;48.158;11.816;2023-09-19T08:45:22;21.20;98.00
4635;DHT22;2330;48.158;11.816;2023-09-19T08:50:33;21.10;98.50
4635;DHT22;2330;48.158;11.816;2023-09-19T08:53:11;21.40;97.60
4635;DHT22;2330;48.158;11.816;2023-09-19T08:55:43;21.50;97.00
4635;DHT22;2330;48.158;11.816;2023-09-19T08:58:13;21.70;96.60
4635;DHT22;2330;48.158;11.816;2023-09-19T09:00:41;21.80;95.20
4635;DHT22;2330;48.158;11.816;2023-09-19T09:03:12;21.50;95.50
4635;DHT22;2330;48.158;11.816;2023-09-19T09:05:41;21.40;95.20
4635;DHT22;2330;48.158;11.816;2023-09-19T09:08:13;21.30;96.30
4635;DHT22;2330;48.158;11.816;2023-09-19T09:10:40;21.30;96.70
4635;DHT22;2330;48.158;11.816;2023-09-19T09:13:07;21.30;96.40
4635;DHT22;2330;48.158;11.816;2023-09-19T09:15:36;21.40;96.00
4635;DHT22;2330;48.158;11.816;2023-09-19T09:18:04;21.60;96.10
4635;DHT22;2330;48.158;11.816;2023-09-19T09:20:34;21.60;95.80
4635;DHT22;2330;48.158;11.816;2023-09-19T09:23:00;21.40;95.30
4635;DHT22;2330;48.158;11.816;2023-09-19T09:25:49;21.10;96.00
4635;DHT22;2330;48.158;11.816;2023-09-19T09:28:36;20.90;96.20
4635;DHT22;2330;48.158;11.816;2023-09-19T09:31:23;20.90;96.60
4635;DHT22;2330;48.158;11.816;2023-09-19T09:33:55;20.80;97.00
4635;DHT22;2330;48.158;11.816;2023-09-19T09:36:35;20.70;96.30
4635;DHT22;2330;48.158;11.816;2023-09-19T09:39:03;20.50;97.40
4635;DHT22;2330;48.158;11.816;2023-09-19T09:41:43;20.20;97.10
4635;DHT22;2330;48.158;11.816;2023-09-19T09:44:13;20.10;97.70
4635;DHT22;2330;48.158;11.816;2023-09-19T09:46:49;19.90;97.90
4635;DHT22;2330;48.158;11.816;2023-09-19T09:49:23;19.90;97.80
4635;DHT22;2330;48.158;11.816;2023-09-19T09:52:07;20.40;96.70
4635;DHT22;2330;48.158;11.816;2023-09-19T09:54:38;20.90;96.80
4635;DHT22;2330;48.158;11.816;2023-09-19T09:57:09;21.40;94.50
4635;DHT22;2330;48.158;11.816;2023-09-19T09:59:50;21.70;94.50
4635;DHT22;2330;48.158;11.816;2023-09-19T10:02:25;22.20;91.50
4635;DHT22;2330;48.158;11.816;2023-09-19T10:04:56;22.00;91.10
4635;DHT22;2330;48.158;11.816;2023-09-19T10:07:56;21.80;92.30
4635;DHT22;2330;48.158;11.816;2023-09-19T10:10:35;21.50;92.60
4635;DHT22;2330;48.158;11.816;2023-09-19T10:13:20;21.10;92.70
4635;DHT22;2330;48.158;11.816;2023-09-19T10:15:51;21.00;93.70
4635;DHT22;2330;48.158;11.816;2023-09-19T10:18:25;21.30;93.80
4635;DHT22;2330;48.158;11.816;2023-09-19T10:20:52;21.60;92.60
4635;DHT22;2330;48.158;11.816;2023-09-19T10:23:20;22.00;91.70
4635;DHT22;2330;48.158;11.816;2023-09-19T10:25:52;22.50;91.30
4635;DHT22;2330;48.158;11.816;2023-09-19T10:28:21;22.60;90.80
4635;DHT22;2330;48.158;11.816;2023-09-19T10:30:50;22.20;91.30
4635;DHT22;2330;48.158;11.816;2023-09-19T10:33:19;21.90;91.50
4635;DHT22;2330;48.158;11.816;2023-09-19T10:35:49;21.90;91.90
4635;DHT22;2330;48.158;11.816;2023-09-19T10:38:19;21.90;92.10
4635;DHT22;2330;48.158;11.816;2023-09-19T10:40:52;21.80;91.90
4635;DHT22;2330;48.158;11.816;2023-09-19T10:43:21;21.70;91.80
4635;DHT22;2330;48.158;11.816;2023-09-19T10:45:49;21.40;91.00
4635;DHT22;2330;48.158;11.816;2023-09-19T10:48:19;21.30;91.30
4635;DHT22;2330;48.158;11.816;2023-09-19T10:53:19;22.00;90.90
4635;DHT22;2330;48.158;11.816;2023-09-19T10:55:55;22.30;90.70
4635;DHT22;2330;48.158;11.816;2023-09-19T10:58:28;22.60;89.40
4635;DHT22;2330;48.158;11.816;2023-09-19T11:01:04;22.80;88.20
4635;DHT22;2330;48.158;11.816;2023-09-19T11:03:39;22.90;87.80
4635;DHT22;2330;48.158;11.816;2023-09-19T11:06:14;23.00;88.00
4635;DHT22;2330;48.158;11.816;2023-09-19T11:08:53;23.10;88.70
4635;DHT22;2330;48.158;11.816;2023-09-19T11:17:38;23.30;87.00
4635;DHT22;2330;48.158;11.816;2023-09-19T11:30:45;23.70;85.50
4635;DHT22;2330;48.158;11.816;2023-09-19T11:36:12;24.40;84.40
4635;DHT22;2330;48.158;11.816;2023-09-19T11:43:49;23.30;86.10
4635;DHT22;2330;48.158;11.816;2023-09-19T11:46:22;22.90;86.50
4635;DHT22;2330;48.158;11.816;2023-09-19T11:48:49;22.80;87.90
4635;DHT22;2330;48.158;11.816;2023-09-19T11:51:23;23.30;85.20
4635;DHT22;2330;48.158;11.816;2023-09-19T11:53:57;23.60;84.70
4635;DHT22;2330;48.158;11.816;2023-09-19T11:56:27;23.90;83.80
4635;DHT22;2330;48.158;11.816;2023-09-19T11:58:56;24.30;82.00
4635;DHT22;2330;48.158;11.816;2023-09-19T12:01:33;24.30;80.30
4635;DHT22;2330;48.158;11.816;2023-09-19T12:04:03;24.00;79.90
4635;DHT22;2330;48.158;11.816;2023-09-19T12:06:31;23.90;80.30
4635;DHT22;2330;48.158;11.816;2023-09-19T12:09:03;24.20;80.10
4635;DHT22;2330;48.158;11.816;2023-09-19T12:11:41;24.20;80.60
4635;DHT22;2330;48.158;11.816;2023-09-19T12:14:10;24.20;80.60
4635;DHT22;2330;48.158;11.816;2023-09-19T12:16:37;24.70;81.00
4635;DHT22;2330;48.158;11.816;2023-09-19T12:19:21;25.00;82.70
4635;DHT22;2330;48.158;11.816;2023-09-19T12:22:03;25.00;87.40
4635;DHT22;2330;48.158;11.816;2023-09-19T12:24:33;24.40;82.80
4635;DHT22;2330;48.158;11.816;2023-09-19T12:27:03;24.50;82.70
4635;DHT22;2330;48.158;11.816;2023-09-19T12:29:48;24.80;81.40
4635;DHT22;2330;48.158;11.816;2023-09-19T12:32:37;25.10;80.20
4635;DHT22;2330;48.158;11.816;2023-09-19T12:35:07;25.30;84.40
4635;DHT22;2330;48.158;11.816;2023-09-19T12:37:42;24.80;84.40
4635;DHT22;2330;48.158;11.816;2023-09-19T12:40:12;24.40;81.90
4635;DHT22;2330;48.158;11.816;2023-09-19T12:42:45;24.30;81.30
4635;DHT22;2330;48.158;11.816;2023-09-19T12:45:13;24.20;81.70
4635;DHT22;2330;48.158;11.816;2023-09-19T12:51:10;23.50;83.00
4635;DHT22;2330;48.158;11.816;2023-09-19T12:53:40;23.30;84.00
4635;DHT22;2330;48.158;11.816;2023-09-19T12:56:11;23.00;84.10
4635;DHT22;2330;48.158;11.816;2023-09-19T12:58:57;23.20;84.40
4635;DHT22;2330;48.158;11.816;2023-09-19T13:01:27;23.80;83.80
4635;DHT22;2330;48.158;11.816;2023-09-19T13:06:49;24.40;81.20
4635;DHT22;2330;48.158;11.816;2023-09-19T13:09:18;24.60;80.90
4635;DHT22;2330;48.158;11.816;2023-09-19T13:11:47;24.70;80.10
4635;DHT22;2330;48.158;11.816;2023-09-19T13:14:24;25.00;80.60
4635;DHT22;2330;48.158;11.816;2023-09-19T13:19:43;24.80;79.80
4635;DHT22;2330;48.158;11.816;2023-09-19T13:22:38;24.60;80.10
4635;DHT22;2330;48.158;11.816;2023-09-19T13:25:16;24.40;82.70
4635;DHT22;2330;48.158;11.816;2023-09-19T13:27:57;24.50;85.00
4635;DHT22;2330;48.158;11.816;2023-09-19T13:30:26;24.30;85.50
4635;DHT22;2330;48.158;11.816;2023-09-19T13:33:08;23.80;86.00
4635;DHT22;2330;48.158;11.816;2023-09-19T13:35:37;23.90;87.00
4635;DHT22;2330;48.158;11.816;2023-09-19T13:38:06;24.10;87.60
4635;DHT22;2330;48.158;11.816;2023-09-19T13:40:38;24.10;86.20
4635;DHT22;2330;48.158;11.816;2023-09-19T13:43:06;24.10;88.90
4635;DHT22;2330;48.158;11.816;2023-09-19T13:45:33;24.00;89.20
4635;DHT22;2330;48.158;11.816;2023-09-19T13:48:00;23.60;89.90
4635;DHT22;2330;48.158;11.816;2023-09-19T13:50:27;23.50;90.50
4635;DHT22;2330;48.158;11.816;2023-09-19T13:52:55;23.70;90.50
4635;DHT22;2330;48.158;11.816;2023-09-19T13:55:22;23.80;89.70
4635;DHT22;2330;48.158;11.816;2023-09-19T13:57:49;24.00;89.80
4635;DHT22;2330;48.158;11.816;2023-09-19T14:00:22;23.60;89.10
4635;DHT22;2330;48.158;11.816;2023-09-19T14:02:49;23.40;89.60
4635;DHT22;2330;48.158;11.816;2023-09-19T14:05:18;23.10;90.20
4635;DHT22;2330;48.158;11.816;2023-09-19T14:07:46;22.90;91.30
4635;DHT22;2330;48.158;11.816;2023-09-19T14:10:13;22.60;91.60
4635;DHT22;2330;48.158;11.816;2023-09-19T14:12:40;22.40;91.00
4635;DHT22;2330;48.158;11.816;2023-09-19T14:15:11;22.40;91.30
4635;DHT22;2330;48.158;11.816;2023-09-19T14:17:38;22.30;90.60
4635;DHT22;2330;48.158;11.816;2023-09-19T14:20:06;22.60;90.70
4635;DHT22;2330;48.158;11.816;2023-09-19T14:22:34;23.20;89.50
4635;DHT22;2330;48.158;11.816;2023-09-19T14:25:00;23.40;88.50
4635;DHT22;2330;48.158;11.816;2023-09-19T14:27:27;23.00;88.60
4635;DHT22;2330;48.158;11.816;2023-09-19T14:29:54;22.80;89.50
4635;DHT22;2330;48.158;11.816;2023-09-19T14:32:22;23.00;88.80
4635;DHT22;2330;48.158;11.816;2023-09-19T14:34:49;23.50;87.40
4635;DHT22;2330;48.158;11.816;2023-09-19T14:37:16;23.70;86.40
4635;DHT22;2330;48.158;11.816;2023-09-19T14:39:47;24.10;86.20
4635;DHT22;2330;48.158;11.816;2023-09-19T14:42:14;24.40;82.80
4635;DHT22;2330;48.158;11.816;2023-09-19T14:44:44;24.50;81.70
4635;DHT22;2330;48.158;11.816;2023-09-19T14:47:11;24.70;79.80
4635;DHT22;2330;48.158;11.816;2023-09-19T14:49:40;24.90;79.10
4635;DHT22;2330;48.158;11.816;2023-09-19T14:52:08;24.80;78.70
4635;DHT22;2330;48.158;11.816;2023-09-19T14:54:36;24.80;79.20
4635;DHT22;2330;48.158;11.816;2023-09-19T14:57:04;24.90;79.20
4635;DHT22;2330;48.158;11.816;2023-09-19T14:59:31;24.90;78.90
4635;DHT22;2330;48.158;11.816;2023-09-19T15:01:58;24.80;79.20
4635;DHT22;2330;48.158;11.816;2023-09-19T15:04:27;24.80;79.10
4635;DHT22;2330;48.158;11.816;2023-09-19T15:06:54;24.80;78.00
4635;DHT22;2330;48.158;11.816;2023-09-19T15:09:22;24.60;78.40
4635;DHT22;2330;48.158;11.816;2023-09-19T15:11:53;24.30;79.50
4635;DHT22;2330;48.158;11.816;2023-09-19T15:14:23;24.30;80.20
4635;DHT22;2330;48.158;11.816;2023-09-19T15:16:51;24.10;80.30
4635;DHT22;2330;48.158;11.816;2023-09-19T15:19:19;24.20;80.70
4635;DHT22;2330;48.158;11.816;2023-09-19T15:21:45;24.40;80.40
4635;DHT22;2330;48.158;11.816;2023-09-19T15:24:12;24.40;79.50
4635;DHT22;2330;48.158;11.816;2023-09-19T15:26:39;24.10;78.80
4635;DHT22;2330;48.158;11.816;2023-09-19T15:29:06;24.00;79.20
4635;DHT22;2330;48.158;11.816;2023-09-19T15:31:34;23.70;79.80
4635;DHT22;2330;48.158;11.816;2023-09-19T15:34:03;23.60;80.20
4635;DHT22;2330;48.158;11.816;2023-09-19T15:36:30;23.60;80.70
4635;DHT22;2330;48.158;11.816;2023-09-19T15:39:00;23.70;79.90
4635;DHT22;2330;48.158;11.816;2023-09-19T15:41:35;23.60;79.90
4635;DHT22;2330;48.158;11.816;2023-09-19T15:44:04;23.60;79.40
4635;DHT22;2330;48.158;11.816;2023-09-19T15:46:33;23.50;79.70
4635;DHT22;2330;48.158;11.816;2023-09-19T15:49:03;23.30;80.30
4635;DHT22;2330;48.158;11.816;2023-09-19T15:51:30;23.20;81.10
4635;DHT22;2330;48.158;11.816;2023-09-19T15:53:57;23.10;81.50
4635;DHT22;2330;48.158;11.816;2023-09-19T15:56:26;23.00;82.40
4635;DHT22;2330;48.158;11.816;2023-09-19T15:58:54;23.00;82.50
4635;DHT22;2330;48.158;11.816;2023-09-19T16:01:23;22.90;83.00
4635;DHT22;2330;48.158;11.816;2023-09-19T16:03:51;22.80;84.30
4635;DHT22;2330;48.158;11.816;2023-09-19T16:06:24;22.70;85.70
4635;DHT22;2330;48.158;11.816;2023-09-19T16:08:54;22.60;87.30
4635;DHT22;2330;48.158;11.816;2023-09-19T16:11:22;22.40;86.90
4635;DHT22;2330;48.158;11.816;2023-09-19T16:13:50;22.30;87.00
4635;DHT22;2330;48.158;11.816;2023-09-19T16:16:18;22.20;87.50
4635;DHT22;2330;48.158;11.816;2023-09-19T16:18:49;22.10;87.60
4635;DHT22;2330;48.158;11.816;2023-09-19T16:21:17;22.00;87.90
4635;DHT22;2330;48.158;11.816;2023-09-19T16:23:47;21.90;88.50
4635;DHT22;2330;48.158;11.816;2023-09-19T16:26:14;21.80;88.60
4635;DHT22;2330;48.158;11.816;2023-09-19T16:28:43;21.80;88.60
4635;DHT22;2330;48.158;11.816;2023-09-19T16:31:11;21.70;88.70
4635;DHT22;2330;48.158;11.816;2023-09-19T16:33:39;21.60;87.80
4635;DHT22;2330;48.158;11.816;2023-09-19T16:36:08;21.60;87.30
4635;DHT22;2330;48.158;11.816;2023-09-19T16:38:36;21.50;87.50
4635;DHT22;2330;48.158;11.816;2023-09-19T16:41:05;21.40;88.10
4635;DHT22;2330;48.158;11.816;2023-09-19T16:43:32;21.30;88.60
4635;DHT22;2330;48.158;11.816;2023-09-19T16:46:02;21.30;89.00
4635;DHT22;2330;48.158;11.816;2023-09-19T16:48:32;21.20;89.80
4635;DHT22;2330;48.158;11.816;2023-09-19T16:51:20;21.10;90.40
4635;DHT22;2330;48.158;11.816;2023-09-19T16:53:47;21.00;89.00